createdAt,value
2023-05-23T00:02:13.853Z,17.59
2023-05-23T00:04:42.867Z,17.55
2023-05-23T00:07:10.548Z,17.54
2023-05-23T00:09:38.156Z,17.51
2023-05-23T00:12:07.597Z,17.49
2023-05-23T00:14:35.441Z,17.48
2023-05-23T00:17:03.298Z,17.47
2023-05-23T00:19:31.006Z,17.42
2023-05-23T00:21:58.834Z,17.44
2023-05-23T00:24:27.136Z,17.46
2023-05-23T00:26:54.638Z,17.43
2023-05-23T00:29:23.699Z,17.40
2023-05-23T00:31:51.839Z,17.37
2023-05-23T00:34:19.706Z,17.40
2023-05-23T00:36:50.187Z,17.39
2023-05-23T00:39:20.574Z,17.32
2023-05-23T00:41:52.448Z,17.31
2023-05-23T00:44:21.283Z,17.28
2023-05-23T00:46:54.205Z,17.29
2023-05-23T00:49:22.942Z,17.25
2023-05-23T00:51:51.755Z,17.30
2023-05-23T00:54:21.490Z,17.33
2023-05-23T00:56:49.282Z,17.34
2023-05-23T00:59:18.074Z,17.29
2023-05-23T01:01:46.664Z,17.34
2023-05-23T01:04:16.684Z,17.35
2023-05-23T01:06:46.952Z,17.34
2023-05-23T01:09:15.819Z,17.36
2023-05-23T01:11:59.624Z,17.39
2023-05-23T01:14:43.441Z,17.35
2023-05-23T01:17:18.158Z,17.42
2023-05-23T01:19:58.251Z,17.42
2023-05-23T01:22:41.967Z,17.42
2023-05-23T01:25:21.784Z,17.42
2023-05-23T01:27:55.114Z,17.42
2023-05-23T01:30:24.131Z,17.44
2023-05-23T01:32:54.589Z,17.45
2023-05-23T01:35:26.618Z,17.48
2023-05-23T01:37:55.760Z,17.51
2023-05-23T01:40:25.811Z,17.46
2023-05-23T01:42:57.589Z,17.52
2023-05-23T01:45:27.753Z,17.54
2023-05-23T01:47:56.982Z,17.57
2023-05-23T01:50:25.923Z,17.54
2023-05-23T01:52:54.705Z,17.57
2023-05-23T01:55:24.233Z,17.63
2023-05-23T01:57:52.881Z,17.63
2023-05-23T02:00:22.253Z,17.65
2023-05-23T02:02:50.065Z,17.70
2023-05-23T02:05:18.614Z,17.73
2023-05-23T02:07:46.728Z,17.73
2023-05-23T02:10:14.341Z,17.79
2023-05-23T02:12:41.997Z,17.83
2023-05-23T02:15:10.271Z,17.86
2023-05-23T02:17:41.296Z,17.84
2023-05-23T02:20:10.159Z,17.77
2023-05-23T02:22:37.766Z,17.70
2023-05-23T02:25:06.374Z,17.68
2023-05-23T02:27:33.948Z,17.74
2023-05-23T02:30:01.532Z,17.74
2023-05-23T02:32:30.220Z,17.73
2023-05-23T02:34:59.636Z,17.74
2023-05-23T02:37:27.274Z,17.70
2023-05-23T02:39:54.989Z,17.76
2023-05-23T02:42:23.014Z,17.76
2023-05-23T02:44:51.003Z,17.79
2023-05-23T02:47:19.250Z,17.78
2023-05-23T02:49:46.862Z,17.76
2023-05-23T02:52:17.941Z,17.78
2023-05-23T02:54:45.672Z,17.77
2023-05-23T02:57:13.637Z,17.77
2023-05-23T02:59:42.502Z,17.79
2023-05-23T03:02:10.381Z,17.76
2023-05-23T03:04:38.823Z,17.77
2023-05-23T03:07:11.558Z,17.77
2023-05-23T03:09:46.042Z,17.69
2023-05-23T03:12:13.604Z,17.68
2023-05-23T03:14:41.280Z,17.70
2023-05-23T03:17:08.866Z,17.73
2023-05-23T03:19:36.827Z,17.74
2023-05-23T03:22:04.871Z,17.75
2023-05-23T03:24:32.853Z,17.74
2023-05-23T03:27:03.016Z,17.80
2023-05-23T03:29:30.763Z,17.81
2023-05-23T03:31:58.446Z,17.83
2023-05-23T03:34:26.382Z,17.80
2023-05-23T03:36:54.040Z,17.80
2023-05-23T03:39:21.619Z,17.81
2023-05-23T03:41:49.233Z,17.83
2023-05-23T03:44:18.692Z,17.84
2023-05-23T03:46:46.323Z,17.85
2023-05-23T03:49:15.982Z,17.82
2023-05-23T03:51:43.576Z,17.83
2023-05-23T03:54:14.831Z,17.86
2023-05-23T03:56:42.413Z,17.90
2023-05-23T03:59:10.274Z,17.93
2023-05-23T04:01:39.534Z,17.98
2023-05-23T04:04:07.143Z,17.97
2023-05-23T04:06:38.237Z,18.00
2023-05-23T04:09:06.390Z,18.04
2023-05-23T04:11:37.707Z,18.10
2023-05-23T04:14:05.304Z,18.12
2023-05-23T04:16:33.593Z,18.14
2023-05-23T04:19:05.692Z,18.12
2023-05-23T04:21:33.716Z,18.21
2023-05-23T04:24:08.175Z,18.19
2023-05-23T04:26:36.388Z,18.21
2023-05-23T04:29:06.336Z,18.22
2023-05-23T04:31:35.070Z,18.28
2023-05-23T04:34:04.258Z,18.23
2023-05-23T04:36:37.990Z,18.21
2023-05-23T04:39:05.729Z,18.21
2023-05-23T04:41:37.284Z,18.14
2023-05-23T04:44:18.640Z,18.17
2023-05-23T04:47:09.110Z,18.23
2023-05-23T04:50:02.096Z,18.24
2023-05-23T04:52:33.301Z,18.17
2023-05-23T04:55:01.307Z,18.18
2023-05-23T04:57:29.429Z,18.18
2023-05-23T04:59:57.898Z,18.23
2023-05-23T05:02:27.085Z,18.26
2023-05-23T05:04:54.816Z,18.29
2023-05-23T05:07:23.967Z,18.34
2023-05-23T05:09:51.624Z,18.33
2023-05-23T05:12:19.557Z,18.39
2023-05-23T05:14:47.130Z,18.43
2023-05-23T05:17:14.848Z,18.45
2023-05-23T05:20:00.477Z,18.48
2023-05-23T05:22:30.507Z,18.47
2023-05-23T05:24:58.189Z,18.50
2023-05-23T05:27:27.803Z,18.45
2023-05-23T05:29:58.480Z,18.44
2023-05-23T05:32:26.401Z,18.38
2023-05-23T05:34:54.363Z,18.40
2023-05-23T05:37:22.470Z,18.42
2023-05-23T05:39:51.528Z,18.42
2023-05-23T05:42:19.391Z,18.48
2023-05-23T05:44:47.088Z,18.49
2023-05-23T05:47:14.792Z,18.58
2023-05-23T05:49:43.174Z,18.56
2023-05-23T05:52:10.949Z,18.48
2023-05-23T05:54:38.575Z,18.47
2023-05-23T05:57:07.646Z,18.46
2023-05-23T05:59:35.411Z,18.51
2023-05-23T06:02:03.155Z,18.46
2023-05-23T06:04:32.242Z,18.52
2023-05-23T06:07:00.174Z,18.57
2023-05-23T06:09:27.802Z,18.53
2023-05-23T06:11:55.481Z,18.44
2023-05-23T06:14:24.755Z,18.48
2023-05-23T06:16:52.891Z,18.52
2023-05-23T06:19:20.689Z,18.49
2023-05-23T06:21:48.453Z,18.60
2023-05-23T06:24:16.820Z,18.62
2023-05-23T06:26:44.474Z,18.68
2023-05-23T06:29:12.047Z,18.74
2023-05-23T06:31:41.207Z,18.79
2023-05-23T06:34:08.943Z,18.86
2023-05-23T06:36:36.550Z,18.75
2023-05-23T06:39:04.250Z,18.70
2023-05-23T06:41:31.856Z,18.58
2023-05-23T06:43:59.537Z,18.48
2023-05-23T06:46:31.073Z,18.47
2023-05-23T06:49:13.662Z,18.52
2023-05-23T06:51:43.920Z,18.49
2023-05-23T06:54:12.263Z,18.39
2023-05-23T06:56:39.862Z,18.40
2023-05-23T06:59:08.478Z,18.39
2023-05-23T07:01:37.911Z,18.47
2023-05-23T07:04:06.956Z,18.40
2023-05-23T07:06:36.352Z,18.52
2023-05-23T07:09:06.539Z,18.62
2023-05-23T07:11:35.348Z,18.49
2023-05-23T07:14:03.391Z,18.58
2023-05-23T07:16:37.080Z,18.61
2023-05-23T07:19:09.240Z,18.81
2023-05-23T07:21:43.333Z,18.78
2023-05-23T07:24:11.619Z,18.84
2023-05-23T07:26:39.228Z,18.88
2023-05-23T07:29:07.103Z,18.92
2023-05-23T07:31:35.745Z,18.95
2023-05-23T07:34:03.851Z,18.91
2023-05-23T07:36:43.029Z,18.90
2023-05-23T07:39:12.964Z,18.81
2023-05-23T07:41:40.567Z,18.83
2023-05-23T07:44:09.590Z,18.87
2023-05-23T07:46:37.537Z,18.84
2023-05-23T07:49:05.164Z,18.75
2023-05-23T07:51:32.844Z,18.77
2023-05-23T07:54:01.991Z,18.80
2023-05-23T07:56:31.068Z,18.75
2023-05-23T07:58:58.694Z,18.82
2023-05-23T08:01:26.349Z,18.60
2023-05-23T08:04:03.769Z,18.61
2023-05-23T08:06:35.602Z,18.60
2023-05-23T08:09:09.860Z,18.54
2023-05-23T08:11:42.929Z,18.52
2023-05-23T08:14:11.711Z,18.56
2023-05-23T08:16:39.495Z,18.71
2023-05-23T08:19:12.676Z,18.86
2023-05-23T08:21:40.544Z,18.86
2023-05-23T08:24:09.494Z,18.75
2023-05-23T08:26:37.987Z,18.96
2023-05-23T08:29:09.577Z,19.11
2023-05-23T08:31:37.848Z,19.09
2023-05-23T08:34:07.228Z,19.25
2023-05-23T08:36:37.230Z,19.34
2023-05-23T08:39:09.112Z,19.44
2023-05-23T08:41:43.296Z,19.57
2023-05-23T08:44:14.251Z,19.64
2023-05-23T08:46:49.721Z,19.75
2023-05-23T08:49:29.169Z,19.80
2023-05-23T08:52:02.388Z,19.91
2023-05-23T08:54:33.955Z,19.77
2023-05-23T08:57:02.868Z,19.86
2023-05-23T08:59:34.553Z,19.75
2023-05-23T09:02:04.630Z,19.82
2023-05-23T09:04:32.893Z,19.84
2023-05-23T09:07:07.673Z,19.96
2023-05-23T09:09:37.702Z,19.90
2023-05-23T09:12:07.968Z,19.95
2023-05-23T09:14:37.389Z,19.83
2023-05-23T09:21:22.268Z,19.91
2023-05-23T09:23:57.221Z,19.99
2023-05-23T09:26:28.317Z,19.98
2023-05-23T09:28:59.337Z,20.09
2023-05-23T09:31:29.318Z,20.26
2023-05-23T09:33:59.798Z,20.19
2023-05-23T09:36:30.298Z,20.29
2023-05-23T09:38:58.221Z,20.46
2023-05-23T09:41:26.442Z,20.41
2023-05-23T09:43:56.376Z,20.54
2023-05-23T09:46:24.226Z,20.74
2023-05-23T09:48:53.795Z,20.86
2023-05-23T09:51:22.913Z,21.05
2023-05-23T09:53:52.126Z,21.22
2023-05-23T09:56:20.846Z,21.37
2023-05-23T09:58:50.101Z,21.47
2023-05-23T10:01:19.439Z,21.59
2023-05-23T10:03:50.993Z,21.25
2023-05-23T10:06:24.935Z,20.96
2023-05-23T10:08:57.914Z,20.73
2023-05-23T10:12:14.017Z,20.64
2023-05-23T10:14:46.446Z,20.72
2023-05-23T10:17:20.540Z,20.70
2023-05-23T10:19:54.932Z,20.46
2023-05-23T10:22:22.850Z,20.60
2023-05-23T10:24:51.350Z,20.58
2023-05-23T10:27:19.801Z,20.75
2023-05-23T10:29:48.471Z,20.83
2023-05-23T10:32:18.100Z,21.10
2023-05-23T10:34:56.030Z,20.92
2023-05-23T10:37:30.712Z,21.04
2023-05-23T10:40:03.570Z,21.07
2023-05-23T10:42:43.004Z,20.65
2023-05-23T10:45:18.847Z,20.92
2023-05-23T10:47:49.381Z,21.14
2023-05-23T10:50:31.693Z,21.18
2023-05-23T10:53:00.999Z,21.33
2023-05-23T10:55:33.136Z,21.31
2023-05-23T10:58:16.753Z,21.48
2023-05-23T11:00:52.002Z,21.56
2023-05-23T11:03:33.844Z,21.43
2023-05-23T11:06:02.537Z,21.44
2023-05-23T11:08:46.856Z,21.52
2023-05-23T11:11:15.141Z,21.16
2023-05-23T11:14:00.060Z,21.03
2023-05-23T11:16:29.625Z,21.14
2023-05-23T11:19:26.083Z,21.21
2023-05-23T11:21:55.952Z,21.38
2023-05-23T11:24:24.385Z,21.54
2023-05-23T11:27:00.039Z,21.83
2023-05-23T11:29:29.288Z,21.97
2023-05-23T11:31:57.150Z,22.11
2023-05-23T11:34:26.987Z,21.54
2023-05-23T11:36:55.642Z,22.04
2023-05-23T11:39:23.522Z,22.39
2023-05-23T11:42:01.489Z,22.76
2023-05-23T11:44:29.275Z,23.26
2023-05-23T11:47:03.916Z,23.61
2023-05-23T11:49:37.920Z,23.60
2023-05-23T11:52:06.612Z,23.56
2023-05-23T11:54:34.775Z,23.54
2023-05-23T11:57:03.563Z,23.35
2023-05-23T11:59:31.352Z,23.23
2023-05-23T12:01:59.015Z,23.12
2023-05-23T12:04:26.910Z,22.86
2023-05-23T12:06:56.261Z,23.00
2023-05-23T12:09:23.901Z,22.74
2023-05-23T12:11:52.216Z,22.79
2023-05-23T12:14:20.149Z,22.58
2023-05-23T12:16:48.193Z,22.23
2023-05-23T12:19:18.249Z,21.83
2023-05-23T12:21:47.235Z,21.74
2023-05-23T12:24:20.538Z,21.58
2023-05-23T12:26:51.504Z,21.33
2023-05-23T12:29:23.097Z,21.29
2023-05-23T12:31:52.444Z,21.37
2023-05-23T12:34:23.225Z,21.46
2023-05-23T12:36:57.218Z,21.60
2023-05-23T12:39:33.612Z,21.41
2023-05-23T12:42:09.404Z,21.43
2023-05-23T12:44:37.731Z,21.56
2023-05-23T12:47:05.754Z,21.66
2023-05-23T12:49:33.329Z,21.71
2023-05-23T12:52:00.973Z,21.69
2023-05-23T12:54:28.599Z,21.81
2023-05-23T12:56:57.540Z,21.79
2023-05-23T12:59:25.244Z,21.96
2023-05-23T13:01:52.940Z,22.11
2023-05-23T13:04:20.644Z,22.11
2023-05-23T13:06:48.276Z,22.37
2023-05-23T13:09:16.041Z,22.48
2023-05-23T13:11:44.234Z,22.34
2023-05-23T13:14:13.714Z,22.79
2023-05-23T13:16:41.305Z,23.05
2023-05-23T13:19:08.985Z,23.28
2023-05-23T13:21:36.624Z,23.74
2023-05-23T13:24:04.344Z,23.74
2023-05-23T13:26:32.018Z,24.14
2023-05-23T13:28:59.624Z,24.41
2023-05-23T13:31:29.747Z,24.51
2023-05-23T13:33:57.400Z,24.00
2023-05-23T13:36:25.383Z,23.93
2023-05-23T13:38:53.149Z,23.77
2023-05-23T13:41:20.928Z,23.47
2023-05-23T13:43:48.747Z,23.36
2023-05-23T13:46:16.388Z,23.78
2023-05-23T13:48:45.316Z,24.44
2023-05-23T13:51:12.985Z,25.73
2023-05-23T13:53:40.733Z,27.74
2023-05-23T13:56:08.309Z,28.90
2023-05-23T13:58:35.922Z,30.09
2023-05-23T14:01:03.652Z,29.22
2023-05-23T14:03:31.456Z,27.62
2023-05-23T14:06:00.381Z,26.28
2023-05-23T14:08:28.014Z,25.73
2023-05-23T14:10:55.614Z,25.21
2023-05-23T14:13:24.112Z,24.28
2023-05-23T14:15:51.950Z,23.91
2023-05-23T14:18:19.594Z,23.94
2023-05-23T14:20:47.268Z,23.81
2023-05-23T14:23:16.249Z,23.75
2023-05-23T14:25:43.906Z,24.04
2023-05-23T14:28:11.628Z,25.71
2023-05-23T14:30:39.231Z,26.84
2023-05-23T14:33:08.556Z,27.55
2023-05-23T14:35:39.792Z,28.36
2023-05-23T14:38:07.654Z,28.42
2023-05-23T14:40:36.563Z,28.39
2023-05-23T14:43:05.104Z,27.73
2023-05-23T14:45:32.842Z,27.36
2023-05-23T14:48:00.808Z,26.45
2023-05-23T14:50:28.625Z,25.93
2023-05-23T14:52:56.482Z,25.57
2023-05-23T14:55:24.231Z,25.36
2023-05-23T14:57:53.359Z,25.04
2023-05-23T15:00:28.049Z,24.95
2023-05-23T15:02:57.910Z,24.67
2023-05-23T15:05:27.345Z,24.44
2023-05-23T15:07:56.751Z,25.02
2023-05-23T15:10:25.461Z,25.73
2023-05-23T15:12:55.160Z,25.29
2023-05-23T15:15:27.709Z,25.29
2023-05-23T15:17:58.296Z,25.94
2023-05-23T15:20:27.788Z,26.61
2023-05-23T15:22:57.600Z,26.24
2023-05-23T15:25:47.197Z,26.19
2023-05-23T15:28:18.197Z,26.33
2023-05-23T15:30:49.828Z,26.25
2023-05-23T15:33:22.565Z,26.28
2023-05-23T15:35:53.729Z,27.88
2023-05-23T15:38:22.291Z,27.28
2023-05-23T15:40:52.550Z,26.98
2023-05-23T15:43:21.716Z,26.27
2023-05-23T15:45:50.653Z,25.91
2023-05-23T15:48:18.573Z,26.42
2023-05-23T15:50:46.179Z,27.79
2023-05-23T15:53:13.824Z,28.86
2023-05-23T15:55:42.700Z,29.86
2023-05-23T15:58:10.900Z,30.64
2023-05-23T16:00:39.996Z,30.50
2023-05-23T16:03:08.174Z,30.98
2023-05-23T16:05:36.254Z,32.38
2023-05-23T16:08:04.068Z,33.67
2023-05-23T16:10:31.677Z,33.84
2023-05-23T16:12:59.336Z,33.57
2023-05-23T16:15:26.977Z,32.69
2023-05-23T16:17:55.951Z,33.19
2023-05-23T16:20:23.627Z,32.62
2023-05-23T16:22:51.281Z,32.89
2023-05-23T16:25:18.919Z,32.40
2023-05-23T16:27:46.535Z,30.82
2023-05-23T16:30:14.401Z,30.13
2023-05-23T16:32:42.046Z,29.21
2023-05-23T16:35:11.867Z,29.28
2023-05-23T16:37:39.558Z,29.14
2023-05-23T16:40:08.295Z,29.92
2023-05-23T16:42:37.212Z,29.90
2023-05-23T16:45:05.225Z,29.08
2023-05-23T16:47:32.855Z,29.23
2023-05-23T16:50:00.483Z,29.44
2023-05-23T16:52:29.430Z,29.08
2023-05-23T16:54:56.990Z,28.69
2023-05-23T16:57:24.667Z,28.19
2023-05-23T16:59:52.241Z,27.60
2023-05-23T17:02:19.949Z,26.91
2023-05-23T17:04:47.555Z,26.05
2023-05-23T17:07:16.059Z,25.44
2023-05-23T17:09:44.977Z,25.38
2023-05-23T17:12:13.624Z,25.52
2023-05-23T17:14:41.312Z,25.37
2023-05-23T17:17:08.908Z,25.20
2023-05-23T17:19:36.769Z,24.60
2023-05-23T17:22:07.424Z,24.20
2023-05-23T17:24:36.523Z,23.53
2023-05-23T17:27:06.193Z,23.17
2023-05-23T17:29:33.760Z,22.38
2023-05-23T17:32:01.407Z,22.17
2023-05-23T17:34:29.047Z,22.04
2023-05-23T17:36:56.706Z,21.50
2023-05-23T17:39:24.371Z,21.27
2023-05-23T17:41:52.070Z,21.23
2023-05-23T17:44:21.203Z,21.02
2023-05-23T17:46:48.903Z,20.66
2023-05-23T17:49:16.720Z,20.80
2023-05-23T17:51:44.364Z,21.33
2023-05-23T17:54:12.036Z,21.95
2023-05-23T17:56:40.210Z,22.70
2023-05-23T17:59:07.888Z,22.83
2023-05-23T18:01:36.882Z,22.88
2023-05-23T18:04:04.553Z,22.84
2023-05-23T18:06:32.417Z,23.00
2023-05-23T18:09:00.198Z,22.74
2023-05-23T18:11:27.903Z,22.64
2023-05-23T18:13:55.527Z,22.66
2023-05-23T18:16:23.156Z,22.44
2023-05-23T18:18:52.149Z,22.12
2023-05-23T18:21:19.772Z,21.84
2023-05-23T18:23:47.431Z,21.44
2023-05-23T18:26:15.050Z,20.97
2023-05-23T18:28:42.741Z,20.62
2023-05-23T18:31:10.334Z,20.36
2023-05-23T18:33:38.047Z,20.06
2023-05-23T18:36:08.742Z,19.88
2023-05-23T18:38:36.832Z,19.69
2023-05-23T18:41:04.544Z,19.48
2023-05-23T18:43:32.233Z,19.26
2023-05-23T18:45:59.819Z,19.20
2023-05-23T18:48:27.479Z,18.98
2023-05-23T18:50:55.196Z,18.91
2023-05-23T18:53:24.106Z,18.73
2023-05-23T18:55:51.723Z,18.66
2023-05-23T18:58:19.467Z,18.54
2023-05-23T19:00:47.753Z,18.48
2023-05-23T19:03:15.571Z,18.41
2023-05-23T19:05:43.362Z,18.32
2023-05-23T19:08:10.948Z,18.18
2023-05-23T19:10:40.163Z,18.15
2023-05-23T19:13:07.999Z,18.12
2023-05-23T19:15:35.589Z,18.06
2023-05-23T19:18:03.293Z,18.04
2023-05-23T19:20:30.990Z,17.97
2023-05-23T19:22:58.772Z,17.89
2023-05-23T19:25:26.891Z,17.78
2023-05-23T19:27:55.861Z,17.74
2023-05-23T19:30:24.286Z,17.62
2023-05-23T19:32:51.979Z,17.53
2023-05-23T19:35:19.672Z,17.45
2023-05-23T19:37:49.068Z,17.39
2023-05-23T19:40:16.917Z,17.39
2023-05-23T19:42:44.461Z,17.39
2023-05-23T19:45:13.661Z,17.32
2023-05-23T19:47:41.805Z,17.29
2023-05-23T19:50:11.839Z,17.25
2023-05-23T19:53:00.884Z,17.24
2023-05-23T19:55:28.460Z,17.22
2023-05-23T19:57:56.385Z,17.20
2023-05-23T20:00:25.576Z,17.23
2023-05-23T20:02:53.308Z,17.20
2023-05-23T20:05:21.762Z,17.19
2023-05-23T20:07:49.354Z,17.17
2023-05-23T20:10:16.992Z,17.08
2023-05-23T20:12:44.604Z,16.94
2023-05-23T20:15:12.877Z,16.91
2023-05-23T20:17:41.881Z,16.89
2023-05-23T20:20:10.418Z,16.92
2023-05-23T20:22:38.061Z,16.91
2023-05-23T20:25:06.514Z,16.82
2023-05-23T20:27:34.147Z,16.88
2023-05-23T20:30:01.834Z,16.81
2023-05-23T20:32:29.439Z,16.78
2023-05-23T20:34:58.570Z,16.75
2023-05-23T20:37:28.226Z,16.66
2023-05-23T20:39:55.799Z,16.65
2023-05-23T20:42:23.381Z,16.60
2023-05-23T20:44:51.061Z,16.60
2023-05-23T20:47:19.136Z,16.62
2023-05-23T20:49:47.630Z,16.55
2023-05-23T20:52:16.601Z,16.51
2023-05-23T20:54:44.168Z,16.34
2023-05-23T20:57:11.772Z,16.39
2023-05-23T20:59:39.455Z,16.37
2023-05-23T21:02:07.867Z,16.39
2023-05-23T21:04:35.550Z,16.43
2023-05-23T21:07:03.221Z,16.39
2023-05-23T21:09:32.215Z,16.39
2023-05-23T21:12:09.336Z,16.38
2023-05-23T21:14:36.946Z,16.38
2023-05-23T21:17:04.977Z,16.36
2023-05-23T21:19:32.896Z,16.36
2023-05-23T21:22:00.861Z,16.32
2023-05-23T21:24:29.641Z,16.30
2023-05-23T21:26:58.691Z,16.29
2023-05-23T21:29:26.269Z,16.27
2023-05-23T21:31:54.021Z,16.26
2023-05-23T21:34:24.291Z,16.26
2023-05-23T21:36:52.522Z,16.25
2023-05-23T21:39:20.262Z,16.27
2023-05-23T21:41:47.870Z,16.26
2023-05-23T21:44:17.713Z,16.25
2023-05-23T21:46:45.743Z,16.23
2023-05-23T21:49:13.535Z,16.25
2023-05-23T21:51:41.180Z,16.23
2023-05-23T21:54:08.894Z,16.18
2023-05-23T21:56:36.476Z,16.19
2023-05-23T21:59:04.072Z,16.17
2023-05-23T22:01:33.093Z,16.19
2023-05-23T22:04:00.876Z,16.23
2023-05-23T22:06:28.616Z,16.27
2023-05-23T22:08:56.378Z,16.31
2023-05-23T22:11:23.978Z,16.32
2023-05-23T22:13:51.574Z,16.30
2023-05-23T22:16:19.195Z,16.30
2023-05-23T22:18:52.009Z,16.31
2023-05-23T22:21:19.869Z,16.27
2023-05-23T22:23:47.525Z,16.21
2023-05-23T22:26:15.169Z,16.05
2023-05-23T22:28:42.727Z,16.07
2023-05-23T22:31:12.682Z,16.07
2023-05-23T22:33:40.858Z,16.11
2023-05-23T22:36:10.781Z,16.09
2023-05-23T22:38:38.526Z,16.12
2023-05-23T22:41:06.335Z,16.11
2023-05-23T22:43:33.991Z,16.09
2023-05-23T22:46:01.663Z,16.09
2023-05-23T22:48:33.646Z,16.12
2023-05-23T22:51:02.061Z,16.16
2023-05-23T22:53:31.347Z,16.13
2023-05-23T22:55:59.098Z,16.05
2023-05-23T22:58:26.732Z,16.03
2023-05-23T23:00:54.400Z,16.02
2023-05-23T23:03:22.288Z,15.97
2023-05-23T23:05:50.522Z,15.95
2023-05-23T23:08:19.276Z,15.94
2023-05-23T23:10:48.298Z,15.86
2023-05-23T23:13:15.996Z,15.82
2023-05-23T23:15:44.149Z,15.80
2023-05-23T23:18:13.373Z,15.79
2023-05-23T23:20:41.543Z,15.82
2023-05-23T23:23:09.440Z,15.83
2023-05-23T23:25:37.695Z,15.85
2023-05-23T23:28:06.845Z,15.88
2023-05-23T23:30:34.395Z,15.82
2023-05-23T23:33:02.141Z,15.79
2023-05-23T23:35:29.800Z,15.76
2023-05-23T23:37:57.407Z,15.75
2023-05-23T23:40:25.022Z,15.73
2023-05-23T23:42:52.577Z,15.70
2023-05-23T23:45:21.899Z,15.58
2023-05-23T23:47:49.497Z,15.53
2023-05-23T23:50:17.106Z,15.37
2023-05-23T23:52:44.719Z,15.29
2023-05-23T23:55:12.346Z,15.24
2023-05-23T23:57:39.917Z,15.14
